createdAt,value
2023-03-01T00:01:49.759Z,26.50
2023-03-01T00:04:18.107Z,24.10
2023-03-01T00:06:48.587Z,24.70
2023-03-01T00:09:17.169Z,24.40
2023-03-01T00:11:46.366Z,25.10
2023-03-01T00:14:17.448Z,25.80
2023-03-01T00:16:47.693Z,23.80
2023-03-01T00:19:18.285Z,24.20
2023-03-01T00:21:46.877Z,21.50
2023-03-01T00:24:15.645Z,27.30
2023-03-01T00:26:43.879Z,23.00
2023-03-01T00:29:12.016Z,23.30
2023-03-01T00:31:39.964Z,20.80
2023-03-01T00:34:10.515Z,22.80
2023-03-01T00:36:39.077Z,21.10
2023-03-01T00:39:17.093Z,19.70
2023-03-01T00:41:45.805Z,18.90
2023-03-01T00:44:16.524Z,18.90
2023-03-01T00:46:44.884Z,17.60
2023-03-01T00:49:13.379Z,17.50
2023-03-01T00:51:42.793Z,17.80
2023-03-01T00:54:11.193Z,18.30
2023-03-01T00:56:41.372Z,20.00
2023-03-01T00:59:09.624Z,19.50
2023-03-01T01:09:19.619Z,20.70
2023-03-01T01:11:50.230Z,19.30
2023-03-01T01:14:19.592Z,20.30
2023-03-01T01:16:48.132Z,19.70
2023-03-01T01:19:17.581Z,21.10
2023-03-01T01:21:46.009Z,21.60
2023-03-01T01:24:14.868Z,21.00
2023-03-01T01:26:44.039Z,21.50
2023-03-01T01:29:13.165Z,22.10
2023-03-01T01:31:42.538Z,20.00
2023-03-01T01:34:17.525Z,22.00
2023-03-01T01:36:48.496Z,19.50
2023-03-01T01:39:16.811Z,20.50
2023-03-01T01:41:45.177Z,22.30
2023-03-01T01:44:24.606Z,22.00
2023-03-01T01:47:06.792Z,22.10
2023-03-01T01:49:39.597Z,22.40
2023-03-01T01:52:12.975Z,20.10
2023-03-01T01:54:59.295Z,24.30
2023-03-01T01:57:36.496Z,22.00
2023-03-01T02:00:20.000Z,21.80
2023-03-01T02:02:53.112Z,20.90
2023-03-01T02:05:27.549Z,21.70
2023-03-01T02:07:57.409Z,23.80
2023-03-01T02:10:25.569Z,21.00
2023-03-01T02:12:54.741Z,21.90
2023-03-01T02:15:24.628Z,21.70
2023-03-01T02:17:54.644Z,22.60
2023-03-01T02:20:28.784Z,23.60
2023-03-01T02:22:56.828Z,23.50
2023-03-01T02:25:53.316Z,25.00
2023-03-01T02:28:27.601Z,24.10
2023-03-01T02:31:14.161Z,24.10
2023-03-01T02:33:43.312Z,23.80
2023-03-01T02:36:20.370Z,27.10
2023-03-01T02:38:49.697Z,27.10
2023-03-01T02:41:19.072Z,23.00
2023-03-01T02:43:47.529Z,23.50
2023-03-01T02:46:18.980Z,23.90
2023-03-01T02:48:49.140Z,21.80
2023-03-01T02:54:23.381Z,19.60
2023-03-01T02:56:51.765Z,20.40
2023-03-01T02:59:22.683Z,22.10
2023-03-01T03:01:51.271Z,20.50
2023-03-01T03:04:19.676Z,22.30
2023-03-01T03:06:50.922Z,22.00
2023-03-01T03:09:19.476Z,22.70
2023-03-01T03:11:49.129Z,21.00
2023-03-01T03:14:17.914Z,20.50
2023-03-01T03:16:50.362Z,20.60
2023-03-01T03:19:19.960Z,21.10
2023-03-01T03:21:48.266Z,22.20
2023-03-01T03:24:19.477Z,23.20
2023-03-01T03:26:48.091Z,21.60
2023-03-01T03:29:16.269Z,21.20
2023-03-01T03:31:44.389Z,20.80
2023-03-01T03:34:19.171Z,21.60
2023-03-01T03:36:47.626Z,22.90
2023-03-01T03:39:15.641Z,22.40
2023-03-01T03:41:44.302Z,22.20
2023-03-01T03:44:13.459Z,21.20
2023-03-01T03:46:41.976Z,21.30
2023-03-01T03:49:10.340Z,20.60
2023-03-01T03:51:38.791Z,20.50
2023-03-01T03:54:07.516Z,21.80
2023-03-01T03:56:36.098Z,22.80
2023-03-01T03:59:04.191Z,22.10
2023-03-01T04:01:32.476Z,21.20
2023-03-01T04:04:05.375Z,22.80
2023-03-01T04:06:33.926Z,19.80
2023-03-01T04:09:03.630Z,20.50
2023-03-01T04:11:32.403Z,19.70
2023-03-01T04:14:05.526Z,21.40
2023-03-01T04:16:35.978Z,21.20
2023-03-01T04:19:04.642Z,20.00
2023-03-01T04:21:33.820Z,19.60
2023-03-01T04:24:04.207Z,18.60
2023-03-01T04:26:32.638Z,20.00
2023-03-01T04:29:01.206Z,21.30
2023-03-01T04:31:29.911Z,21.80
2023-03-01T04:33:58.589Z,19.50
2023-03-01T04:36:28.914Z,20.20
2023-03-01T04:38:58.219Z,22.00
2023-03-01T04:41:27.107Z,23.80
2023-03-01T04:43:55.691Z,20.60
2023-03-01T04:46:24.006Z,19.40
2023-03-01T04:48:56.154Z,19.30
2023-03-01T04:51:24.810Z,20.10
2023-03-01T04:53:52.907Z,19.10
2023-03-01T04:56:21.279Z,19.00
2023-03-01T04:58:49.860Z,21.80
2023-03-01T05:01:20.005Z,21.10
2023-03-01T05:03:49.789Z,22.30
2023-03-01T05:06:18.276Z,21.00
2023-03-01T05:08:46.677Z,21.70
2023-03-01T05:11:15.946Z,21.40
2023-03-01T05:13:44.530Z,21.80
2023-03-01T05:16:13.244Z,21.30
2023-03-01T05:18:42.625Z,22.70
2023-03-01T05:21:12.841Z,20.40
2023-03-01T05:23:44.351Z,19.30
2023-03-01T05:26:27.361Z,21.20
2023-03-01T05:29:00.419Z,20.70
2023-03-01T05:31:32.050Z,19.90
2023-03-01T05:34:00.398Z,20.80
2023-03-01T05:36:29.228Z,20.70
2023-03-01T05:38:59.031Z,21.50
2023-03-01T05:41:27.216Z,19.80
2023-03-01T05:43:55.707Z,20.90
2023-03-01T05:46:25.804Z,20.00
2023-03-01T05:48:54.438Z,21.10
2023-03-01T05:51:23.396Z,20.30
2023-03-01T05:53:52.185Z,18.80
2023-03-01T05:56:20.892Z,17.40
2023-03-01T05:58:50.882Z,18.40
2023-03-01T06:01:19.043Z,18.20
2023-03-01T06:03:48.135Z,19.60
2023-03-01T06:06:17.258Z,19.20
2023-03-01T06:08:45.952Z,18.90
2023-03-01T06:11:14.533Z,18.20
2023-03-01T06:13:45.940Z,17.60
2023-03-01T06:16:14.838Z,17.60
2023-03-01T06:18:43.671Z,17.40
2023-03-01T06:21:11.835Z,18.60
2023-03-01T06:23:40.874Z,17.10
2023-03-01T06:26:09.995Z,18.70
2023-03-01T06:28:41.562Z,16.60
2023-03-01T06:31:10.764Z,17.90
2023-03-01T06:33:38.964Z,19.10
2023-03-01T06:36:08.835Z,16.30
2023-03-01T06:38:37.128Z,18.20
2023-03-01T06:41:05.466Z,18.60
2023-03-01T06:43:33.597Z,17.00
2023-03-01T06:46:03.414Z,19.90
2023-03-01T06:48:31.650Z,19.50
2023-03-01T06:51:01.821Z,19.00
2023-03-01T06:53:30.176Z,18.20
2023-03-01T06:56:01.068Z,19.70
2023-03-01T06:58:29.795Z,21.00
2023-03-01T07:00:57.941Z,18.80
2023-03-01T07:03:26.231Z,17.80
2023-03-01T07:05:54.688Z,18.60
2023-03-01T07:08:23.789Z,19.90
2023-03-01T07:10:59.659Z,20.70
2023-03-01T07:13:29.538Z,21.70
2023-03-01T07:15:59.193Z,19.70
2023-03-01T07:18:27.325Z,20.20
2023-03-01T07:21:08.795Z,19.40
2023-03-01T07:23:37.129Z,18.20
2023-03-01T07:26:06.012Z,19.30
2023-03-01T07:28:39.917Z,20.00
2023-03-01T07:31:08.699Z,21.30
2023-03-01T07:33:38.373Z,19.80
2023-03-01T07:36:07.734Z,20.50
2023-03-01T07:38:37.788Z,19.30
2023-03-01T07:41:06.930Z,18.60
2023-03-01T07:43:37.633Z,19.60
2023-03-01T07:46:07.465Z,22.20
2023-03-01T07:48:37.132Z,22.80
2023-03-01T07:51:06.222Z,24.50
2023-03-01T07:53:37.512Z,22.90
2023-03-01T07:56:11.186Z,22.90
2023-03-01T07:58:41.598Z,20.80
2023-03-01T08:01:12.588Z,20.70
2023-03-01T08:03:40.965Z,20.30
2023-03-01T08:06:10.004Z,18.60
2023-03-01T08:08:39.198Z,21.40
2023-03-01T08:11:10.163Z,19.10
2023-03-01T08:13:58.566Z,19.10
2023-03-01T08:16:27.305Z,18.30
2023-03-01T08:18:57.942Z,18.50
2023-03-01T08:21:26.511Z,18.90
2023-03-01T08:23:54.869Z,18.10
2023-03-01T08:26:23.235Z,18.50
2023-03-01T08:28:51.546Z,19.30
2023-03-01T08:31:19.925Z,19.40
2023-03-01T08:33:56.103Z,19.70
2023-03-01T08:36:25.508Z,18.00
2023-03-01T08:38:54.025Z,21.40
2023-03-01T08:41:22.348Z,18.80
2023-03-01T08:43:50.817Z,20.10
2023-03-01T08:46:21.596Z,21.40
2023-03-01T08:48:50.463Z,17.50
2023-03-01T08:51:19.636Z,18.50
2023-03-01T08:53:47.651Z,18.00
2023-03-01T08:56:16.401Z,17.00
2023-03-01T08:58:46.488Z,18.60
2023-03-01T09:01:19.635Z,18.50
2023-03-01T09:03:47.864Z,18.00
2023-03-01T09:06:17.569Z,20.70
2023-03-01T09:08:56.356Z,18.90
2023-03-01T09:11:24.394Z,21.60
2023-03-01T09:13:56.876Z,21.50
2023-03-01T09:16:25.413Z,20.10
2023-03-01T09:18:54.911Z,18.90
2023-03-01T09:21:39.595Z,20.10
2023-03-01T09:24:14.668Z,20.70
2023-03-01T09:26:48.824Z,20.40
2023-03-01T09:29:18.926Z,20.30
2023-03-01T09:31:47.292Z,19.70
2023-03-01T09:34:20.392Z,19.20
2023-03-01T09:36:48.988Z,19.80
2023-03-01T09:39:18.913Z,18.90
2023-03-01T09:41:53.245Z,20.10
2023-03-01T09:44:31.045Z,21.00
2023-03-01T09:47:24.197Z,20.80
2023-03-01T09:50:19.670Z,21.20
2023-03-01T09:53:02.151Z,22.80
2023-03-01T09:55:40.833Z,20.40
2023-03-01T09:58:16.207Z,22.10
2023-03-01T10:00:44.589Z,22.20
2023-03-01T10:03:34.803Z,30.00
2023-03-01T10:06:33.996Z,37.40
2023-03-01T10:09:22.560Z,25.50
2023-03-01T10:11:53.750Z,28.70
2023-03-01T10:14:37.049Z,23.40
2023-03-01T10:17:20.408Z,24.20
2023-03-01T10:19:48.848Z,22.40
2023-03-01T10:22:24.550Z,25.10
2023-03-01T10:24:53.190Z,26.80
2023-03-01T10:27:35.336Z,27.60
2023-03-01T10:30:13.304Z,23.20
2023-03-01T10:32:41.703Z,23.10
2023-03-01T10:35:22.329Z,23.10
2023-03-01T10:38:10.858Z,26.80
2023-03-01T10:40:54.741Z,25.70
2023-03-01T10:43:22.856Z,24.40
2023-03-01T10:45:51.090Z,25.40
2023-03-01T10:48:29.822Z,51.60
2023-03-01T10:51:01.346Z,37.00
2023-03-01T10:53:41.921Z,28.10
2023-03-01T10:56:11.935Z,21.80
2023-03-01T10:59:00.597Z,24.80
2023-03-01T11:01:33.288Z,22.80
2023-03-01T11:04:14.749Z,21.10
2023-03-01T11:06:43.986Z,19.00
2023-03-01T11:09:23.610Z,21.50
2023-03-01T11:11:56.523Z,26.50
2023-03-01T11:14:27.906Z,26.30
2023-03-01T11:17:13.997Z,21.60
2023-03-01T11:19:48.849Z,17.50
2023-03-01T11:22:23.106Z,18.20
2023-03-01T11:25:08.484Z,18.30
2023-03-01T11:27:41.865Z,20.80
2023-03-01T11:30:27.276Z,23.40
2023-03-01T11:33:14.160Z,22.60
2023-03-01T11:35:44.472Z,21.10
2023-03-01T11:38:21.277Z,19.20
2023-03-01T11:41:09.583Z,21.60
2023-03-01T11:44:25.740Z,20.00
2023-03-01T11:47:03.585Z,19.10
2023-03-01T11:49:55.869Z,19.20
2023-03-01T11:52:39.539Z,19.50
2023-03-01T11:55:16.129Z,18.50
2023-03-01T11:57:50.069Z,19.80
2023-03-01T12:00:40.254Z,20.50
2023-03-01T12:03:20.852Z,18.80
2023-03-01T12:06:15.578Z,20.70
2023-03-01T12:08:54.414Z,21.10
2023-03-01T12:11:24.128Z,22.00
2023-03-01T12:14:10.524Z,19.40
2023-03-01T12:16:49.304Z,18.70
2023-03-01T12:19:36.768Z,21.60
2023-03-01T12:22:43.327Z,18.30
2023-03-01T12:25:20.036Z,17.60
2023-03-01T12:28:04.428Z,18.40
2023-03-01T12:31:13.168Z,16.80
2023-03-01T12:33:58.608Z,16.70
2023-03-01T12:36:45.256Z,18.60
2023-03-01T12:39:29.731Z,20.30
2023-03-01T12:42:17.324Z,19.10
2023-03-01T12:44:51.372Z,19.90
2023-03-01T12:47:41.773Z,18.30
2023-03-01T12:50:24.385Z,18.20
2023-03-01T12:52:54.996Z,20.30
2023-03-01T12:55:34.251Z,19.80
2023-03-01T12:58:13.061Z,17.20
2023-03-01T13:00:47.404Z,18.30
2023-03-01T13:03:37.094Z,16.40
2023-03-01T13:06:19.712Z,18.10
2023-03-01T13:09:01.504Z,16.40
2023-03-01T13:11:29.639Z,18.10
2023-03-01T13:14:34.236Z,17.60
2023-03-01T13:17:04.941Z,16.00
2023-03-01T13:19:33.558Z,16.60
2023-03-01T13:22:33.375Z,16.90
2023-03-01T13:25:14.702Z,18.30
2023-03-01T13:27:45.782Z,19.50
2023-03-01T13:30:34.663Z,19.00
2023-03-01T13:33:29.764Z,17.50
2023-03-01T13:35:58.888Z,18.80
2023-03-01T13:38:45.571Z,18.90
2023-03-01T13:41:19.168Z,16.00
2023-03-01T13:43:49.408Z,18.20
2023-03-01T13:46:20.910Z,19.20
2023-03-01T13:48:54.059Z,16.60
2023-03-01T13:51:27.342Z,16.90
2023-03-01T13:53:56.532Z,16.50
2023-03-01T13:56:29.635Z,16.00
2023-03-01T13:59:03.924Z,18.20
2023-03-01T14:01:37.069Z,17.70
2023-03-01T14:04:24.071Z,15.70
2023-03-01T14:06:52.228Z,17.50
2023-03-01T14:09:25.886Z,16.90
2023-03-01T14:11:54.130Z,17.40
2023-03-01T14:14:27.580Z,17.80
2023-03-01T14:17:15.270Z,17.10
2023-03-01T14:19:44.835Z,15.90
2023-03-01T14:22:35.544Z,19.60
2023-03-01T14:25:17.946Z,20.00
2023-03-01T14:27:46.931Z,18.40
2023-03-01T14:30:20.541Z,20.00
2023-03-01T14:32:55.672Z,22.90
2023-03-01T14:35:36.806Z,23.00
2023-03-01T14:38:05.260Z,28.10
2023-03-01T14:40:37.842Z,21.90
2023-03-01T14:43:11.734Z,26.80
2023-03-01T14:45:47.896Z,22.50
2023-03-01T14:48:17.413Z,18.00
2023-03-01T14:50:45.682Z,30.20
2023-03-01T14:53:19.560Z,21.30
2023-03-01T14:55:49.974Z,25.10
2023-03-01T14:58:22.009Z,24.80
2023-03-01T15:00:58.793Z,21.70
2023-03-01T15:03:42.148Z,25.70
2023-03-01T15:06:10.941Z,26.20
2023-03-01T15:08:43.002Z,23.60
2023-03-01T15:11:26.061Z,24.40
2023-03-01T15:13:55.982Z,23.90
2023-03-01T15:16:29.696Z,27.00
2023-03-01T15:18:59.942Z,25.20
2023-03-01T15:21:38.322Z,23.00
2023-03-01T15:24:20.794Z,27.70
2023-03-01T15:27:03.063Z,26.50
2023-03-01T15:29:34.490Z,24.90
2023-03-01T15:32:27.051Z,23.50
2023-03-01T15:34:55.768Z,17.20
2023-03-01T15:37:44.468Z,18.10
2023-03-01T15:40:34.507Z,18.90
2023-03-01T15:45:35.244Z,34.60
2023-03-01T15:48:15.638Z,22.80
2023-03-01T15:50:45.413Z,27.70
2023-03-01T15:53:15.603Z,22.20
2023-03-01T15:55:45.027Z,20.40
2023-03-01T15:58:15.645Z,20.00
2023-03-01T16:00:59.445Z,23.70
2023-03-01T16:03:29.603Z,19.40
2023-03-01T16:05:58.756Z,17.50
2023-03-01T16:08:27.277Z,15.90
2023-03-01T16:10:56.806Z,17.80
2023-03-01T16:13:28.307Z,19.20
2023-03-01T16:16:02.630Z,18.40
2023-03-01T16:18:31.452Z,25.60
2023-03-01T16:21:00.709Z,43.00
2023-03-01T16:23:28.909Z,44.90
2023-03-01T16:26:00.748Z,44.20
2023-03-01T16:28:30.666Z,53.90
2023-03-01T16:31:00.025Z,52.70
2023-03-01T16:33:34.129Z,47.10
2023-03-01T16:36:10.953Z,50.20
2023-03-01T16:38:39.831Z,52.90
2023-03-01T16:41:12.522Z,50.80
2023-03-01T16:43:41.768Z,47.80
2023-03-01T16:46:17.008Z,27.80
2023-03-01T16:48:45.616Z,31.20
2023-03-01T16:51:14.186Z,32.80
2023-03-01T16:53:47.734Z,30.10
2023-03-01T16:56:19.244Z,24.10
2023-03-01T16:58:47.934Z,19.30
2023-03-01T17:01:27.096Z,17.70
2023-03-01T17:03:57.685Z,17.70
2023-03-01T17:06:27.757Z,19.50
2023-03-01T17:08:56.083Z,16.40
2023-03-01T17:11:24.468Z,16.90
2023-03-01T17:13:56.734Z,16.50
2023-03-01T17:16:25.466Z,17.60
2023-03-01T17:18:53.823Z,23.10
2023-03-01T17:21:22.140Z,35.70
2023-03-01T17:23:50.688Z,32.00
2023-03-01T17:26:19.253Z,29.80
2023-03-01T17:28:52.018Z,29.50
2023-03-01T17:31:22.584Z,26.20
2023-03-01T17:33:52.848Z,24.60
2023-03-01T17:36:21.052Z,23.30
2023-03-01T17:38:50.913Z,22.70
2023-03-01T17:41:21.932Z,22.80
2023-03-01T17:43:51.617Z,21.10
2023-03-01T17:46:20.265Z,22.30
2023-03-01T17:48:49.988Z,21.70
2023-03-01T17:51:38.578Z,20.10
2023-03-01T17:54:07.274Z,25.80
2023-03-01T17:56:38.817Z,23.80
2023-03-01T17:59:07.286Z,22.00
2023-03-01T18:01:37.467Z,21.50
2023-03-01T18:04:05.595Z,20.80
2023-03-01T18:06:35.736Z,21.80
2023-03-01T18:09:04.629Z,20.80
2023-03-01T18:14:05.737Z,22.60
2023-03-01T18:16:34.591Z,22.60
2023-03-01T18:19:04.560Z,22.50
2023-03-01T18:21:34.228Z,34.70
2023-03-01T18:24:02.858Z,33.00
2023-03-01T18:26:31.883Z,32.40
2023-03-01T18:29:01.602Z,28.90
2023-03-01T18:31:33.576Z,26.70
2023-03-01T18:34:02.738Z,27.50
2023-03-01T18:36:33.634Z,24.80
2023-03-01T18:39:06.171Z,26.30
2023-03-01T18:41:34.858Z,25.40
2023-03-01T18:44:04.375Z,27.90
2023-03-01T18:46:34.775Z,28.30
2023-03-01T18:49:06.232Z,26.90
2023-03-01T18:51:36.122Z,33.90
2023-03-01T18:54:04.966Z,39.10
2023-03-01T18:56:35.010Z,23.80
2023-03-01T18:59:04.248Z,35.30
2023-03-01T19:01:36.393Z,38.80
2023-03-01T19:04:05.662Z,39.80
2023-03-01T19:06:35.492Z,16.60
2023-03-01T19:09:05.123Z,12.60
2023-03-01T19:11:36.294Z,13.00
2023-03-01T19:14:04.965Z,10.70
2023-03-01T19:16:36.105Z,16.60
2023-03-01T19:19:05.746Z,10.30
2023-03-01T19:21:34.363Z,10.20
2023-03-01T19:24:03.217Z,9.60
2023-03-01T19:26:32.086Z,9.70
2023-03-01T19:29:06.808Z,10.10
2023-03-01T19:31:35.611Z,7.40
2023-03-01T19:34:12.452Z,9.80
2023-03-01T19:36:43.931Z,9.40
2023-03-01T19:39:13.803Z,9.70
2023-03-01T19:41:43.096Z,10.70
2023-03-01T19:44:13.887Z,9.70
2023-03-01T19:46:42.166Z,14.80
2023-03-01T19:49:10.733Z,13.50
2023-03-01T19:51:39.737Z,14.30
2023-03-01T19:54:10.135Z,12.70
2023-03-01T19:56:39.045Z,13.30
2023-03-01T19:59:07.375Z,13.10
2023-03-01T20:01:38.051Z,12.40
2023-03-01T20:04:09.309Z,12.30
2023-03-01T20:06:39.291Z,15.60
2023-03-01T20:09:20.406Z,12.20
2023-03-01T20:11:52.353Z,13.10
2023-03-01T20:14:27.211Z,18.30
2023-03-01T20:16:57.306Z,33.40
2023-03-01T20:19:25.722Z,31.90
2023-03-01T20:21:54.174Z,29.50
2023-03-01T20:24:23.305Z,24.30
2023-03-01T20:26:51.648Z,23.60
2023-03-01T20:29:20.297Z,21.80
2023-03-01T20:31:48.907Z,20.50
2023-03-01T20:34:18.125Z,20.30
2023-03-01T20:36:46.149Z,20.00
2023-03-01T20:39:16.229Z,20.10
2023-03-01T20:41:46.330Z,18.40
2023-03-01T20:44:19.491Z,19.00
2023-03-01T20:46:48.563Z,13.70
2023-03-01T20:49:16.899Z,16.50
2023-03-01T20:51:45.385Z,16.70
2023-03-01T20:54:14.469Z,16.00
2023-03-01T20:56:43.468Z,9.70
2023-03-01T20:59:12.376Z,7.80
2023-03-01T21:01:42.272Z,7.10
2023-03-01T21:04:10.443Z,8.00
2023-03-01T21:06:40.094Z,7.20
2023-03-01T21:09:08.383Z,7.80
2023-03-01T21:11:41.257Z,7.60
2023-03-01T21:14:09.506Z,10.10
2023-03-01T21:16:37.591Z,8.60
2023-03-01T21:19:12.398Z,7.00
2023-03-01T21:21:41.277Z,6.80
2023-03-01T21:24:10.693Z,7.90
2023-03-01T21:26:39.581Z,5.80
2023-03-01T21:29:08.012Z,6.90
2023-03-01T21:31:38.942Z,5.90
2023-03-01T21:34:07.585Z,6.00
2023-03-01T21:36:38.873Z,6.00
2023-03-01T21:39:07.311Z,6.20
2023-03-01T21:41:37.041Z,6.30
2023-03-01T21:44:07.446Z,5.70
2023-03-01T21:46:37.446Z,5.70
2023-03-01T21:49:05.731Z,5.90
2023-03-01T21:51:34.032Z,5.60
2023-03-01T21:54:03.537Z,5.50
2023-03-01T21:56:35.276Z,5.40
2023-03-01T21:59:05.659Z,5.90
2023-03-01T22:01:34.300Z,5.90
2023-03-01T22:04:03.752Z,6.70
2023-03-01T22:06:40.990Z,6.80
2023-03-01T22:09:20.023Z,8.50
2023-03-01T22:11:51.272Z,9.80
2023-03-01T22:14:19.535Z,13.40
2023-03-01T22:16:48.197Z,16.00
2023-03-01T22:19:16.359Z,17.80
2023-03-01T22:21:46.040Z,17.10
2023-03-01T22:24:15.173Z,17.10
2023-03-01T22:26:44.542Z,14.80
2023-03-01T22:29:15.253Z,14.30
2023-03-01T22:31:44.511Z,13.80
2023-03-01T22:34:14.818Z,13.50
2023-03-01T22:36:43.568Z,12.80
2023-03-01T22:39:13.686Z,13.60
2023-03-01T22:41:44.404Z,15.00
2023-03-01T22:44:13.509Z,14.10
2023-03-01T22:46:45.894Z,14.50
2023-03-01T22:49:14.150Z,13.00
2023-03-01T22:51:43.060Z,13.10
2023-03-01T22:54:11.396Z,13.30
2023-03-01T22:56:39.816Z,14.60
2023-03-01T22:59:09.882Z,15.00
2023-03-01T23:01:38.762Z,15.50
2023-03-01T23:04:06.788Z,16.50
2023-03-01T23:06:35.745Z,16.60
2023-03-01T23:09:06.117Z,17.10
2023-03-01T23:14:03.505Z,16.70
2023-03-01T23:16:33.589Z,16.10
2023-03-01T23:19:01.912Z,15.20
2023-03-01T23:21:35.623Z,14.60
2023-03-01T23:24:05.323Z,13.90
2023-03-01T23:26:34.074Z,14.60
2023-03-01T23:29:03.191Z,12.60
2023-03-01T23:31:31.566Z,12.90
2023-03-01T23:34:00.377Z,13.70
2023-03-01T23:36:31.848Z,12.40
2023-03-01T23:39:05.824Z,13.10
2023-03-01T23:41:34.909Z,14.40
2023-03-01T23:44:03.393Z,11.50
2023-03-01T23:46:34.902Z,13.00
2023-03-01T23:49:04.777Z,13.30
2023-03-01T23:51:35.408Z,14.20
2023-03-01T23:54:05.653Z,16.00
2023-03-01T23:56:38.201Z,16.80
2023-03-01T23:59:09.268Z,14.80
